sensor_id;sensor_type;location;lat;lon;timestamp;P1;durP1;ratioP1;P2;durP2;ratioP2
75847;SDS011;65750;47.540;19.090;2023-05-29T00:01:55;2.10;;;1.33;;
75847;SDS011;65750;47.540;19.090;2023-05-29T00:04:22;2.95;;;1.62;;
75847;SDS011;65750;47.540;19.090;2023-05-29T00:06:50;2.65;;;1.65;;
75847;SDS011;65750;47.540;19.090;2023-05-29T00:09:17;2.62;;;1.90;;
75847;SDS011;65750;47.540;19.090;2023-05-29T00:11:44;2.20;;;1.45;;
75847;SDS011;65750;47.540;19.090;2023-05-29T00:14:17;3.47;;;1.80;;
75847;SDS011;65750;47.540;19.090;2023-05-29T00:16:45;3.10;;;1.80;;
75847;SDS011;65750;47.540;19.090;2023-05-29T00:19:12;2.58;;;1.87;;
75847;SDS011;65750;47.540;19.090;2023-05-29T00:21:39;2.90;;;2.08;;
75847;SDS011;65750;47.540;19.090;2023-05-29T00:24:07;2.20;;;1.40;;
75847;SDS011;65750;47.540;19.090;2023-05-29T00:26:34;2.57;;;1.67;;
75847;SDS011;65750;47.540;19.090;2023-05-29T00:29:01;3.08;;;1.65;;
75847;SDS011;65750;47.540;19.090;2023-05-29T00:31:33;2.60;;;1.60;;
75847;SDS011;65750;47.540;19.090;2023-05-29T00:34:01;2.50;;;1.58;;
75847;SDS011;65750;47.540;19.090;2023-05-29T00:36:28;2.30;;;1.58;;
75847;SDS011;65750;47.540;19.090;2023-05-29T00:38:57;2.10;;;1.43;;
75847;SDS011;65750;47.540;19.090;2023-05-29T00:41:24;2.33;;;1.65;;
75847;SDS011;65750;47.540;19.090;2023-05-29T00:43:51;2.22;;;1.33;;
75847;SDS011;65750;47.540;19.090;2023-05-29T00:46:18;2.37;;;1.48;;
75847;SDS011;65750;47.540;19.090;2023-05-29T00:48:47;2.47;;;1.50;;
75847;SDS011;65750;47.540;19.090;2023-05-29T00:51:15;2.47;;;1.47;;
75847;SDS011;65750;47.540;19.090;2023-05-29T00:53:43;1.90;;;1.20;;
75847;SDS011;65750;47.540;19.090;2023-05-29T00:56:11;2.50;;;1.45;;
75847;SDS011;65750;47.540;19.090;2023-05-29T00:58:39;2.28;;;1.37;;
75847;SDS011;65750;47.540;19.090;2023-05-29T01:01:07;2.40;;;1.45;;
75847;SDS011;65750;47.540;19.090;2023-05-29T01:03:34;2.20;;;1.50;;
75847;SDS011;65750;47.540;19.090;2023-05-29T01:06:03;2.60;;;1.65;;
75847;SDS011;65750;47.540;19.090;2023-05-29T01:08:31;2.50;;;1.60;;
75847;SDS011;65750;47.540;19.090;2023-05-29T01:11:00;2.60;;;1.40;;
75847;SDS011;65750;47.540;19.090;2023-05-29T01:13:36;2.97;;;1.65;;
75847;SDS011;65750;47.540;19.090;2023-05-29T01:16:05;2.60;;;1.87;;
75847;SDS011;65750;47.540;19.090;2023-05-29T01:18:38;2.40;;;1.70;;
75847;SDS011;65750;47.540;19.090;2023-05-29T01:21:11;2.22;;;1.50;;
75847;SDS011;65750;47.540;19.090;2023-05-29T01:23:51;2.30;;;1.50;;
75847;SDS011;65750;47.540;19.090;2023-05-29T01:29:21;2.20;;;1.30;;
75847;SDS011;65750;47.540;19.090;2023-05-29T01:31:50;2.10;;;1.35;;
75847;SDS011;65750;47.540;19.090;2023-05-29T01:34:18;2.20;;;1.20;;
75847;SDS011;65750;47.540;19.090;2023-05-29T01:36:46;2.22;;;1.30;;
75847;SDS011;65750;47.540;19.090;2023-05-29T01:39:13;2.20;;;1.30;;
75847;SDS011;65750;47.540;19.090;2023-05-29T01:41:40;2.67;;;1.40;;
75847;SDS011;65750;47.540;19.090;2023-05-29T01:44:10;2.25;;;1.33;;
75847;SDS011;65750;47.540;19.090;2023-05-29T01:46:38;2.10;;;1.27;;
75847;SDS011;65750;47.540;19.090;2023-05-29T01:49:06;2.20;;;1.30;;
75847;SDS011;65750;47.540;19.090;2023-05-29T01:51:34;2.00;;;1.30;;
75847;SDS011;65750;47.540;19.090;2023-05-29T01:54:01;1.87;;;1.30;;
75847;SDS011;65750;47.540;19.090;2023-05-29T01:56:29;2.35;;;1.48;;
75847;SDS011;65750;47.540;19.090;2023-05-29T01:58:57;2.30;;;1.62;;
75847;SDS011;65750;47.540;19.090;2023-05-29T02:01:26;2.28;;;1.45;;
75847;SDS011;65750;47.540;19.090;2023-05-29T02:03:54;2.15;;;1.33;;
75847;SDS011;65750;47.540;19.090;2023-05-29T02:06:21;2.03;;;1.23;;
75847;SDS011;65750;47.540;19.090;2023-05-29T02:08:48;2.17;;;1.40;;
75847;SDS011;65750;47.540;19.090;2023-05-29T02:11:15;2.70;;;1.98;;
75847;SDS011;65750;47.540;19.090;2023-05-29T02:13:42;2.08;;;1.50;;
75847;SDS011;65750;47.540;19.090;2023-05-29T02:16:10;2.37;;;1.60;;
75847;SDS011;65750;47.540;19.090;2023-05-29T02:18:39;3.17;;;1.70;;
75847;SDS011;65750;47.540;19.090;2023-05-29T02:21:06;2.65;;;1.80;;
75847;SDS011;65750;47.540;19.090;2023-05-29T02:23:34;3.15;;;1.90;;
75847;SDS011;65750;47.540;19.090;2023-05-29T02:26:01;3.10;;;1.87;;
75847;SDS011;65750;47.540;19.090;2023-05-29T02:28:29;3.05;;;1.98;;
75847;SDS011;65750;47.540;19.090;2023-05-29T02:30:56;3.13;;;2.20;;
75847;SDS011;65750;47.540;19.090;2023-05-29T02:33:23;3.70;;;1.90;;
75847;SDS011;65750;47.540;19.090;2023-05-29T02:35:54;3.00;;;2.03;;
75847;SDS011;65750;47.540;19.090;2023-05-29T02:38:23;2.85;;;1.73;;
75847;SDS011;65750;47.540;19.090;2023-05-29T02:40:50;3.30;;;2.03;;
75847;SDS011;65750;47.540;19.090;2023-05-29T02:43:17;3.57;;;2.27;;
75847;SDS011;65750;47.540;19.090;2023-05-29T02:45:44;3.53;;;2.50;;
75847;SDS011;65750;47.540;19.090;2023-05-29T02:48:11;5.22;;;2.05;;
75847;SDS011;65750;47.540;19.090;2023-05-29T02:50:38;3.70;;;2.58;;
75847;SDS011;65750;47.540;19.090;2023-05-29T02:53:07;3.85;;;2.47;;
75847;SDS011;65750;47.540;19.090;2023-05-29T02:55:34;3.63;;;2.20;;
75847;SDS011;65750;47.540;19.090;2023-05-29T02:58:02;5.43;;;2.55;;
75847;SDS011;65750;47.540;19.090;2023-05-29T03:00:29;4.20;;;2.10;;
75847;SDS011;65750;47.540;19.090;2023-05-29T03:02:57;3.90;;;2.42;;
75847;SDS011;65750;47.540;19.090;2023-05-29T03:05:24;5.45;;;2.67;;
75847;SDS011;65750;47.540;19.090;2023-05-29T03:07:52;5.20;;;2.50;;
75847;SDS011;65750;47.540;19.090;2023-05-29T03:10:21;5.12;;;2.65;;
75847;SDS011;65750;47.540;19.090;2023-05-29T03:12:48;3.72;;;2.33;;
75847;SDS011;65750;47.540;19.090;2023-05-29T03:15:17;3.92;;;2.67;;
75847;SDS011;65750;47.540;19.090;2023-05-29T03:17:45;3.62;;;2.40;;
75847;SDS011;65750;47.540;19.090;2023-05-29T03:20:12;4.50;;;2.80;;
75847;SDS011;65750;47.540;19.090;2023-05-29T03:22:41;3.70;;;2.70;;
75847;SDS011;65750;47.540;19.090;2023-05-29T03:25:08;3.83;;;2.53;;
75847;SDS011;65750;47.540;19.090;2023-05-29T03:27:37;3.33;;;2.20;;
75847;SDS011;65750;47.540;19.090;2023-05-29T03:30:05;3.72;;;2.60;;
75847;SDS011;65750;47.540;19.090;2023-05-29T03:32:35;3.53;;;2.30;;
75847;SDS011;65750;47.540;19.090;2023-05-29T03:35:02;4.82;;;2.60;;
75847;SDS011;65750;47.540;19.090;2023-05-29T03:37:30;3.87;;;2.55;;
75847;SDS011;65750;47.540;19.090;2023-05-29T03:39:57;3.67;;;2.40;;
75847;SDS011;65750;47.540;19.090;2023-05-29T03:42:24;5.10;;;2.35;;
75847;SDS011;65750;47.540;19.090;2023-05-29T03:44:53;4.20;;;2.63;;
75847;SDS011;65750;47.540;19.090;2023-05-29T03:47:21;3.60;;;2.42;;
75847;SDS011;65750;47.540;19.090;2023-05-29T03:49:49;3.90;;;2.70;;
75847;SDS011;65750;47.540;19.090;2023-05-29T03:52:17;4.07;;;2.45;;
75847;SDS011;65750;47.540;19.090;2023-05-29T03:54:44;3.58;;;2.35;;
75847;SDS011;65750;47.540;19.090;2023-05-29T03:57:11;3.50;;;2.20;;
75847;SDS011;65750;47.540;19.090;2023-05-29T03:59:38;4.37;;;2.58;;
75847;SDS011;65750;47.540;19.090;2023-05-29T04:02:07;3.78;;;2.60;;
75847;SDS011;65750;47.540;19.090;2023-05-29T04:04:35;4.45;;;2.50;;
75847;SDS011;65750;47.540;19.090;2023-05-29T04:07:02;6.22;;;2.72;;
75847;SDS011;65750;47.540;19.090;2023-05-29T04:09:30;3.80;;;2.57;;
75847;SDS011;65750;47.540;19.090;2023-05-29T04:11:59;3.80;;;2.40;;
75847;SDS011;65750;47.540;19.090;2023-05-29T04:14:27;3.67;;;2.30;;
75847;SDS011;65750;47.540;19.090;2023-05-29T04:16:55;4.00;;;2.53;;
75847;SDS011;65750;47.540;19.090;2023-05-29T04:19:24;3.80;;;2.80;;
75847;SDS011;65750;47.540;19.090;2023-05-29T04:21:51;3.90;;;2.80;;
75847;SDS011;65750;47.540;19.090;2023-05-29T04:24:18;4.18;;;2.75;;
75847;SDS011;65750;47.540;19.090;2023-05-29T04:26:46;4.87;;;2.92;;
75847;SDS011;65750;47.540;19.090;2023-05-29T04:29:13;4.10;;;2.67;;
75847;SDS011;65750;47.540;19.090;2023-05-29T04:31:40;3.90;;;2.70;;
75847;SDS011;65750;47.540;19.090;2023-05-29T04:34:08;4.57;;;2.60;;
75847;SDS011;65750;47.540;19.090;2023-05-29T04:36:38;3.70;;;2.42;;
75847;SDS011;65750;47.540;19.090;2023-05-29T04:39:05;4.75;;;2.53;;
75847;SDS011;65750;47.540;19.090;2023-05-29T04:41:33;3.58;;;2.45;;
75847;SDS011;65750;47.540;19.090;2023-05-29T04:44:01;3.47;;;2.45;;
75847;SDS011;65750;47.540;19.090;2023-05-29T04:46:30;4.33;;;2.67;;
75847;SDS011;65750;47.540;19.090;2023-05-29T04:48:57;4.15;;;2.80;;
75847;SDS011;65750;47.540;19.090;2023-05-29T04:51:24;3.78;;;2.67;;
75847;SDS011;65750;47.540;19.090;2023-05-29T04:53:55;3.87;;;2.33;;
75847;SDS011;65750;47.540;19.090;2023-05-29T04:56:23;3.97;;;2.67;;
75847;SDS011;65750;47.540;19.090;2023-05-29T04:58:50;4.47;;;2.53;;
75847;SDS011;65750;47.540;19.090;2023-05-29T05:01:17;4.37;;;2.42;;
75847;SDS011;65750;47.540;19.090;2023-05-29T05:03:45;3.42;;;2.40;;
75847;SDS011;65750;47.540;19.090;2023-05-29T05:06:12;5.32;;;2.45;;
75847;SDS011;65750;47.540;19.090;2023-05-29T05:08:42;4.37;;;2.90;;
75847;SDS011;65750;47.540;19.090;2023-05-29T05:11:11;4.30;;;2.70;;
75847;SDS011;65750;47.540;19.090;2023-05-29T05:13:39;4.60;;;2.58;;
75847;SDS011;65750;47.540;19.090;2023-05-29T05:16:06;4.03;;;2.70;;
75847;SDS011;65750;47.540;19.090;2023-05-29T05:18:33;4.37;;;2.50;;
75847;SDS011;65750;47.540;19.090;2023-05-29T05:21:01;3.58;;;2.37;;
75847;SDS011;65750;47.540;19.090;2023-05-29T05:23:29;3.60;;;2.37;;
75847;SDS011;65750;47.540;19.090;2023-05-29T05:25:56;4.07;;;2.42;;
75847;SDS011;65750;47.540;19.090;2023-05-29T05:28:26;4.00;;;2.80;;
75847;SDS011;65750;47.540;19.090;2023-05-29T05:30:53;4.85;;;2.83;;
75847;SDS011;65750;47.540;19.090;2023-05-29T05:33:20;4.03;;;2.50;;
75847;SDS011;65750;47.540;19.090;2023-05-29T05:35:48;4.70;;;2.47;;
75847;SDS011;65750;47.540;19.090;2023-05-29T05:38:15;4.15;;;2.33;;
75847;SDS011;65750;47.540;19.090;2023-05-29T05:40:43;4.28;;;2.70;;
75847;SDS011;65750;47.540;19.090;2023-05-29T05:43:11;4.00;;;2.80;;
75847;SDS011;65750;47.540;19.090;2023-05-29T05:45:42;3.92;;;2.83;;
75847;SDS011;65750;47.540;19.090;2023-05-29T05:48:09;3.57;;;2.43;;
75847;SDS011;65750;47.540;19.090;2023-05-29T05:50:36;3.33;;;2.40;;
75847;SDS011;65750;47.540;19.090;2023-05-29T05:53:04;4.43;;;2.80;;
75847;SDS011;65750;47.540;19.090;2023-05-29T05:55:33;4.50;;;2.55;;
75847;SDS011;65750;47.540;19.090;2023-05-29T05:58:00;3.75;;;2.58;;
75847;SDS011;65750;47.540;19.090;2023-05-29T06:00:28;4.23;;;2.90;;
75847;SDS011;65750;47.540;19.090;2023-05-29T06:02:57;4.60;;;2.80;;
75847;SDS011;65750;47.540;19.090;2023-05-29T06:05:26;3.62;;;2.35;;
75847;SDS011;65750;47.540;19.090;2023-05-29T06:07:53;4.32;;;2.65;;
75847;SDS011;65750;47.540;19.090;2023-05-29T06:10:23;3.45;;;2.53;;
75847;SDS011;65750;47.540;19.090;2023-05-29T06:12:50;3.80;;;2.60;;
75847;SDS011;65750;47.540;19.090;2023-05-29T06:15:19;4.00;;;2.60;;
75847;SDS011;65750;47.540;19.090;2023-05-29T06:17:46;3.87;;;2.80;;
75847;SDS011;65750;47.540;19.090;2023-05-29T06:20:15;3.67;;;2.70;;
75847;SDS011;65750;47.540;19.090;2023-05-29T06:22:43;3.83;;;2.70;;
75847;SDS011;65750;47.540;19.090;2023-05-29T06:25:16;3.97;;;2.83;;
75847;SDS011;65750;47.540;19.090;2023-05-29T06:27:44;3.83;;;2.50;;
75847;SDS011;65750;47.540;19.090;2023-05-29T06:30:11;4.30;;;2.83;;
75847;SDS011;65750;47.540;19.090;2023-05-29T06:32:39;4.45;;;2.70;;
75847;SDS011;65750;47.540;19.090;2023-05-29T06:35:07;3.78;;;2.83;;
75847;SDS011;65750;47.540;19.090;2023-05-29T06:37:35;3.97;;;2.77;;
75847;SDS011;65750;47.540;19.090;2023-05-29T06:40:04;3.90;;;2.70;;
75847;SDS011;65750;47.540;19.090;2023-05-29T06:42:31;4.00;;;2.65;;
75847;SDS011;65750;47.540;19.090;2023-05-29T06:44:58;3.45;;;2.60;;
75847;SDS011;65750;47.540;19.090;2023-05-29T06:47:26;3.37;;;2.30;;
75847;SDS011;65750;47.540;19.090;2023-05-29T06:49:54;3.97;;;2.70;;
75847;SDS011;65750;47.540;19.090;2023-05-29T06:52:21;3.50;;;2.33;;
75847;SDS011;65750;47.540;19.090;2023-05-29T06:54:52;3.78;;;2.30;;
75847;SDS011;65750;47.540;19.090;2023-05-29T06:57:19;4.18;;;2.53;;
75847;SDS011;65750;47.540;19.090;2023-05-29T06:59:47;3.60;;;2.45;;
75847;SDS011;65750;47.540;19.090;2023-05-29T07:02:16;3.47;;;2.40;;
75847;SDS011;65750;47.540;19.090;2023-05-29T07:04:45;3.92;;;2.65;;
75847;SDS011;65750;47.540;19.090;2023-05-29T07:07:13;3.70;;;2.33;;
75847;SDS011;65750;47.540;19.090;2023-05-29T07:09:41;3.40;;;2.50;;
75847;SDS011;65750;47.540;19.090;2023-05-29T07:12:09;6.65;;;3.35;;
75847;SDS011;65750;47.540;19.090;2023-05-29T07:14:36;5.70;;;3.40;;
75847;SDS011;65750;47.540;19.090;2023-05-29T07:17:04;5.85;;;3.85;;
75847;SDS011;65750;47.540;19.090;2023-05-29T07:19:32;6.28;;;4.07;;
75847;SDS011;65750;47.540;19.090;2023-05-29T07:22:00;6.87;;;4.10;;
75847;SDS011;65750;47.540;19.090;2023-05-29T07:24:27;5.60;;;4.10;;
75847;SDS011;65750;47.540;19.090;2023-05-29T07:26:55;6.60;;;4.13;;
75847;SDS011;65750;47.540;19.090;2023-05-29T07:29:24;6.37;;;4.50;;
75847;SDS011;65750;47.540;19.090;2023-05-29T07:31:51;8.15;;;4.07;;
75847;SDS011;65750;47.540;19.090;2023-05-29T07:34:19;8.25;;;4.37;;
75847;SDS011;65750;47.540;19.090;2023-05-29T07:36:57;10.68;;;4.40;;
75847;SDS011;65750;47.540;19.090;2023-05-29T07:39:25;8.33;;;4.43;;
75847;SDS011;65750;47.540;19.090;2023-05-29T07:41:53;6.82;;;4.12;;
75847;SDS011;65750;47.540;19.090;2023-05-29T07:44:20;10.27;;;4.68;;
75847;SDS011;65750;47.540;19.090;2023-05-29T07:46:50;9.23;;;4.68;;
75847;SDS011;65750;47.540;19.090;2023-05-29T07:49:19;7.37;;;4.90;;
75847;SDS011;65750;47.540;19.090;2023-05-29T07:51:47;8.60;;;4.60;;
75847;SDS011;65750;47.540;19.090;2023-05-29T07:54:14;7.50;;;4.75;;
75847;SDS011;65750;47.540;19.090;2023-05-29T07:56:44;7.97;;;4.70;;
75847;SDS011;65750;47.540;19.090;2023-05-29T07:59:11;7.55;;;4.35;;
75847;SDS011;65750;47.540;19.090;2023-05-29T08:01:39;8.75;;;5.03;;
75847;SDS011;65750;47.540;19.090;2023-05-29T08:04:08;8.37;;;4.37;;
75847;SDS011;65750;47.540;19.090;2023-05-29T08:06:35;6.62;;;4.40;;
75847;SDS011;65750;47.540;19.090;2023-05-29T08:09:03;7.80;;;4.32;;
75847;SDS011;65750;47.540;19.090;2023-05-29T08:11:31;9.40;;;4.40;;
75847;SDS011;65750;47.540;19.090;2023-05-29T08:13:58;8.02;;;4.20;;
75847;SDS011;65750;47.540;19.090;2023-05-29T08:16:26;7.07;;;4.70;;
75847;SDS011;65750;47.540;19.090;2023-05-29T08:18:54;6.37;;;4.87;;
75847;SDS011;65750;47.540;19.090;2023-05-29T08:21:22;8.48;;;4.70;;
75847;SDS011;65750;47.540;19.090;2023-05-29T08:23:51;7.30;;;4.35;;
75847;SDS011;65750;47.540;19.090;2023-05-29T08:26:18;8.43;;;5.00;;
75847;SDS011;65750;47.540;19.090;2023-05-29T08:28:46;6.37;;;4.80;;
75847;SDS011;65750;47.540;19.090;2023-05-29T08:31:13;7.45;;;4.65;;
75847;SDS011;65750;47.540;19.090;2023-05-29T08:33:40;8.90;;;5.00;;
75847;SDS011;65750;47.540;19.090;2023-05-29T08:36:08;6.32;;;4.00;;
75847;SDS011;65750;47.540;19.090;2023-05-29T08:38:36;7.60;;;4.30;;
75847;SDS011;65750;47.540;19.090;2023-05-29T08:41:04;10.17;;;4.77;;
75847;SDS011;65750;47.540;19.090;2023-05-29T08:43:31;7.75;;;4.93;;
75847;SDS011;65750;47.540;19.090;2023-05-29T08:45:59;7.68;;;4.43;;
75847;SDS011;65750;47.540;19.090;2023-05-29T08:48:28;8.18;;;4.55;;
75847;SDS011;65750;47.540;19.090;2023-05-29T08:50:56;9.40;;;4.10;;
75847;SDS011;65750;47.540;19.090;2023-05-29T08:53:25;8.47;;;4.47;;
75847;SDS011;65750;47.540;19.090;2023-05-29T08:55:54;6.97;;;4.70;;
75847;SDS011;65750;47.540;19.090;2023-05-29T08:58:21;7.75;;;4.40;;
75847;SDS011;65750;47.540;19.090;2023-05-29T09:00:49;8.73;;;4.07;;
75847;SDS011;65750;47.540;19.090;2023-05-29T09:03:17;8.25;;;5.03;;
75847;SDS011;65750;47.540;19.090;2023-05-29T09:05:46;9.83;;;4.90;;
75847;SDS011;65750;47.540;19.090;2023-05-29T09:08:13;8.05;;;4.57;;
75847;SDS011;65750;47.540;19.090;2023-05-29T09:10:40;8.43;;;4.72;;
75847;SDS011;65750;47.540;19.090;2023-05-29T09:13:10;8.35;;;5.05;;
75847;SDS011;65750;47.540;19.090;2023-05-29T09:15:39;8.32;;;5.15;;
75847;SDS011;65750;47.540;19.090;2023-05-29T09:18:08;9.43;;;5.07;;
75847;SDS011;65750;47.540;19.090;2023-05-29T09:20:35;7.87;;;5.20;;
75847;SDS011;65750;47.540;19.090;2023-05-29T09:23:03;7.03;;;5.00;;
75847;SDS011;65750;47.540;19.090;2023-05-29T09:25:33;8.10;;;5.05;;
75847;SDS011;65750;47.540;19.090;2023-05-29T09:28:02;10.18;;;5.10;;
75847;SDS011;65750;47.540;19.090;2023-05-29T09:31:21;7.95;;;4.68;;
75847;SDS011;65750;47.540;19.090;2023-05-29T09:33:49;6.70;;;4.70;;
75847;SDS011;65750;47.540;19.090;2023-05-29T09:36:19;8.35;;;4.80;;
75847;SDS011;65750;47.540;19.090;2023-05-29T09:38:49;7.35;;;4.55;;
75847;SDS011;65750;47.540;19.090;2023-05-29T09:41:23;7.57;;;4.67;;
75847;SDS011;65750;47.540;19.090;2023-05-29T09:43:51;9.90;;;4.75;;
75847;SDS011;65750;47.540;19.090;2023-05-29T09:46:21;7.68;;;4.62;;
75847;SDS011;65750;47.540;19.090;2023-05-29T09:48:48;7.62;;;4.37;;
75847;SDS011;65750;47.540;19.090;2023-05-29T09:51:19;6.00;;;4.47;;
75847;SDS011;65750;47.540;19.090;2023-05-29T09:53:48;7.87;;;4.67;;
75847;SDS011;65750;47.540;19.090;2023-05-29T09:56:16;8.45;;;4.85;;
75847;SDS011;65750;47.540;19.090;2023-05-29T09:58:44;8.77;;;4.75;;
75847;SDS011;65750;47.540;19.090;2023-05-29T10:01:12;7.68;;;4.30;;
75847;SDS011;65750;47.540;19.090;2023-05-29T10:03:42;9.80;;;4.30;;
75847;SDS011;65750;47.540;19.090;2023-05-29T10:06:10;7.43;;;4.50;;
75847;SDS011;65750;47.540;19.090;2023-05-29T10:08:40;9.40;;;4.72;;
75847;SDS011;65750;47.540;19.090;2023-05-29T10:11:13;14.02;;;5.35;;
75847;SDS011;65750;47.540;19.090;2023-05-29T10:13:42;8.20;;;5.20;;
75847;SDS011;65750;47.540;19.090;2023-05-29T10:16:14;9.43;;;5.50;;
75847;SDS011;65750;47.540;19.090;2023-05-29T10:18:43;8.50;;;5.67;;
75847;SDS011;65750;47.540;19.090;2023-05-29T10:21:12;10.20;;;5.35;;
75847;SDS011;65750;47.540;19.090;2023-05-29T10:23:40;10.70;;;5.70;;
75847;SDS011;65750;47.540;19.090;2023-05-29T10:26:10;11.27;;;5.50;;
75847;SDS011;65750;47.540;19.090;2023-05-29T10:28:40;9.55;;;5.50;;
75847;SDS011;65750;47.540;19.090;2023-05-29T10:31:12;10.73;;;5.27;;
75847;SDS011;65750;47.540;19.090;2023-05-29T10:33:49;10.60;;;5.32;;
75847;SDS011;65750;47.540;19.090;2023-05-29T10:36:22;9.98;;;5.43;;
75847;SDS011;65750;47.540;19.090;2023-05-29T10:38:50;10.55;;;6.05;;
75847;SDS011;65750;47.540;19.090;2023-05-29T10:41:31;12.80;;;5.53;;
75847;SDS011;65750;47.540;19.090;2023-05-29T10:43:59;11.00;;;6.90;;
75847;SDS011;65750;47.540;19.090;2023-05-29T10:49:29;14.05;;;10.07;;
75847;SDS011;65750;47.540;19.090;2023-05-29T10:51:57;14.27;;;10.07;;
75847;SDS011;65750;47.540;19.090;2023-05-29T10:54:25;22.23;;;9.02;;
75847;SDS011;65750;47.540;19.090;2023-05-29T10:56:55;16.53;;;7.53;;
75847;SDS011;65750;47.540;19.090;2023-05-29T10:59:22;14.90;;;7.35;;
75847;SDS011;65750;47.540;19.090;2023-05-29T11:01:53;20.42;;;8.57;;
75847;SDS011;65750;47.540;19.090;2023-05-29T11:04:31;16.87;;;6.50;;
75847;SDS011;65750;47.540;19.090;2023-05-29T11:06:59;13.10;;;5.70;;
75847;SDS011;65750;47.540;19.090;2023-05-29T11:09:30;12.17;;;5.27;;
75847;SDS011;65750;47.540;19.090;2023-05-29T11:12:13;12.27;;;6.00;;
75847;SDS011;65750;47.540;19.090;2023-05-29T11:14:54;12.10;;;5.57;;
75847;SDS011;65750;47.540;19.090;2023-05-29T11:17:29;11.77;;;5.72;;
75847;SDS011;65750;47.540;19.090;2023-05-29T11:19:59;13.68;;;5.72;;
75847;SDS011;65750;47.540;19.090;2023-05-29T11:22:30;10.17;;;5.50;;
75847;SDS011;65750;47.540;19.090;2023-05-29T11:25:08;14.23;;;6.05;;
75847;SDS011;65750;47.540;19.090;2023-05-29T11:27:36;10.80;;;5.40;;
75847;SDS011;65750;47.540;19.090;2023-05-29T11:30:04;10.68;;;5.40;;
75847;SDS011;65750;47.540;19.090;2023-05-29T11:32:36;11.63;;;5.62;;
75847;SDS011;65750;47.540;19.090;2023-05-29T11:35:06;12.47;;;6.70;;
75847;SDS011;65750;47.540;19.090;2023-05-29T11:37:34;11.30;;;5.78;;
75847;SDS011;65750;47.540;19.090;2023-05-29T11:40:02;7.43;;;4.90;;
75847;SDS011;65750;47.540;19.090;2023-05-29T11:42:31;10.73;;;4.82;;
75847;SDS011;65750;47.540;19.090;2023-05-29T11:45:11;6.72;;;4.32;;
75847;SDS011;65750;47.540;19.090;2023-05-29T11:47:55;9.13;;;5.13;;
75847;SDS011;65750;47.540;19.090;2023-05-29T11:50:25;8.68;;;4.90;;
75847;SDS011;65750;47.540;19.090;2023-05-29T11:52:53;7.45;;;4.70;;
75847;SDS011;65750;47.540;19.090;2023-05-29T11:55:20;8.38;;;4.70;;
75847;SDS011;65750;47.540;19.090;2023-05-29T11:57:48;8.93;;;4.65;;
75847;SDS011;65750;47.540;19.090;2023-05-29T12:00:16;6.87;;;4.37;;
75847;SDS011;65750;47.540;19.090;2023-05-29T12:02:45;7.53;;;4.37;;
75847;SDS011;65750;47.540;19.090;2023-05-29T12:05:13;8.25;;;4.75;;
75847;SDS011;65750;47.540;19.090;2023-05-29T12:07:48;7.20;;;4.37;;
75847;SDS011;65750;47.540;19.090;2023-05-29T12:10:17;6.18;;;4.47;;
75847;SDS011;65750;47.540;19.090;2023-05-29T12:12:47;8.83;;;4.67;;
75847;SDS011;65750;47.540;19.090;2023-05-29T12:15:16;6.03;;;4.53;;
75847;SDS011;65750;47.540;19.090;2023-05-29T12:17:44;6.57;;;4.35;;
75847;SDS011;65750;47.540;19.090;2023-05-29T12:20:13;9.18;;;4.45;;
75847;SDS011;65750;47.540;19.090;2023-05-29T12:22:41;7.82;;;4.35;;
75847;SDS011;65750;47.540;19.090;2023-05-29T12:25:12;7.07;;;4.43;;
75847;SDS011;65750;47.540;19.090;2023-05-29T12:27:40;7.62;;;4.35;;
75847;SDS011;65750;47.540;19.090;2023-05-29T12:30:08;9.68;;;4.43;;
75847;SDS011;65750;47.540;19.090;2023-05-29T12:32:37;7.07;;;4.07;;
75847;SDS011;65750;47.540;19.090;2023-05-29T12:35:15;11.07;;;4.37;;
75847;SDS011;65750;47.540;19.090;2023-05-29T12:37:46;7.30;;;3.80;;
75847;SDS011;65750;47.540;19.090;2023-05-29T12:40:17;6.95;;;4.10;;
75847;SDS011;65750;47.540;19.090;2023-05-29T12:42:46;7.35;;;4.35;;
75847;SDS011;65750;47.540;19.090;2023-05-29T12:45:14;5.95;;;4.07;;
75847;SDS011;65750;47.540;19.090;2023-05-29T12:47:45;7.87;;;3.97;;
75847;SDS011;65750;47.540;19.090;2023-05-29T12:50:20;6.53;;;4.13;;
75847;SDS011;65750;47.540;19.090;2023-05-29T12:52:58;5.65;;;3.90;;
75847;SDS011;65750;47.540;19.090;2023-05-29T12:55:28;7.07;;;4.28;;
75847;SDS011;65750;47.540;19.090;2023-05-29T12:57:58;8.43;;;4.03;;
75847;SDS011;65750;47.540;19.090;2023-05-29T13:00:26;6.87;;;4.03;;
75847;SDS011;65750;47.540;19.090;2023-05-29T13:02:53;6.90;;;4.00;;
75847;SDS011;65750;47.540;19.090;2023-05-29T13:05:20;8.25;;;3.92;;
75847;SDS011;65750;47.540;19.090;2023-05-29T13:07:48;8.25;;;5.07;;
75847;SDS011;65750;47.540;19.090;2023-05-29T13:10:17;8.18;;;5.18;;
75847;SDS011;65750;47.540;19.090;2023-05-29T13:12:45;6.78;;;5.03;;
75847;SDS011;65750;47.540;19.090;2023-05-29T13:15:13;9.17;;;5.20;;
75847;SDS011;65750;47.540;19.090;2023-05-29T13:17:41;7.82;;;5.00;;
75847;SDS011;65750;47.540;19.090;2023-05-29T13:20:09;8.70;;;5.53;;
75847;SDS011;65750;47.540;19.090;2023-05-29T13:22:37;8.93;;;5.00;;
75847;SDS011;65750;47.540;19.090;2023-05-29T13:25:05;6.12;;;4.53;;
75847;SDS011;65750;47.540;19.090;2023-05-29T13:27:34;6.50;;;4.90;;
75847;SDS011;65750;47.540;19.090;2023-05-29T13:30:04;7.32;;;4.43;;
75847;SDS011;65750;47.540;19.090;2023-05-29T13:32:32;7.45;;;4.22;;
75847;SDS011;65750;47.540;19.090;2023-05-29T13:34:59;8.40;;;4.15;;
75847;SDS011;65750;47.540;19.090;2023-05-29T13:37:26;7.30;;;4.15;;
75847;SDS011;65750;47.540;19.090;2023-05-29T13:39:54;5.73;;;4.00;;
75847;SDS011;65750;47.540;19.090;2023-05-29T13:42:21;7.72;;;3.83;;
75847;SDS011;65750;47.540;19.090;2023-05-29T13:44:49;5.60;;;4.15;;
75847;SDS011;65750;47.540;19.090;2023-05-29T13:47:18;5.50;;;3.90;;
75847;SDS011;65750;47.540;19.090;2023-05-29T13:49:45;5.05;;;3.72;;
75847;SDS011;65750;47.540;19.090;2023-05-29T13:52:12;6.27;;;4.10;;
75847;SDS011;65750;47.540;19.090;2023-05-29T13:54:40;7.25;;;4.20;;
75847;SDS011;65750;47.540;19.090;2023-05-29T13:57:07;6.40;;;4.35;;
75847;SDS011;65750;47.540;19.090;2023-05-29T13:59:34;5.95;;;4.22;;
75847;SDS011;65750;47.540;19.090;2023-05-29T14:02:02;6.25;;;4.20;;
75847;SDS011;65750;47.540;19.090;2023-05-29T14:04:31;7.63;;;4.20;;
75847;SDS011;65750;47.540;19.090;2023-05-29T14:06:58;6.18;;;3.85;;
75847;SDS011;65750;47.540;19.090;2023-05-29T14:09:25;7.05;;;4.70;;
75847;SDS011;65750;47.540;19.090;2023-05-29T14:11:57;8.73;;;4.00;;
75847;SDS011;65750;47.540;19.090;2023-05-29T14:14:25;8.48;;;4.50;;
75847;SDS011;65750;47.540;19.090;2023-05-29T14:16:52;9.43;;;4.10;;
75847;SDS011;65750;47.540;19.090;2023-05-29T14:19:21;9.05;;;4.72;;
75847;SDS011;65750;47.540;19.090;2023-05-29T14:21:49;15.80;;;5.43;;
75847;SDS011;65750;47.540;19.090;2023-05-29T14:24:17;8.00;;;4.97;;
75847;SDS011;65750;47.540;19.090;2023-05-29T14:26:45;7.85;;;4.80;;
75847;SDS011;65750;47.540;19.090;2023-05-29T14:29:13;7.80;;;4.60;;
75847;SDS011;65750;47.540;19.090;2023-05-29T14:31:41;6.15;;;4.50;;
75847;SDS011;65750;47.540;19.090;2023-05-29T14:34:08;7.68;;;5.30;;
75847;SDS011;65750;47.540;19.090;2023-05-29T14:36:35;6.15;;;4.35;;
75847;SDS011;65750;47.540;19.090;2023-05-29T14:39:04;8.75;;;4.70;;
75847;SDS011;65750;47.540;19.090;2023-05-29T14:41:32;7.30;;;4.50;;
75847;SDS011;65750;47.540;19.090;2023-05-29T14:44:00;19.48;;;7.07;;
75847;SDS011;65750;47.540;19.090;2023-05-29T14:46:27;21.35;;;8.60;;
75847;SDS011;65750;47.540;19.090;2023-05-29T14:48:57;19.52;;;8.23;;